createdAt,value
2024-02-18T00:02:17.881Z,103164.97
2024-02-18T00:04:44.637Z,103163.25
2024-02-18T00:07:11.479Z,103154.47
2024-02-18T00:09:37.937Z,103153.63
2024-02-18T00:12:04.813Z,103163.66
2024-02-18T00:14:31.261Z,103153.00
2024-02-18T00:16:57.674Z,103151.47
2024-02-18T00:19:24.362Z,103159.53
2024-02-18T00:21:52.401Z,103151.59
2024-02-18T00:24:18.996Z,103141.66
2024-02-18T00:26:57.905Z,103145.50
2024-02-18T00:29:25.725Z,103141.94
2024-02-18T00:31:52.535Z,103145.63
2024-02-18T00:34:23.185Z,103141.09
2024-02-18T00:36:50.838Z,103133.13
2024-02-18T00:39:17.471Z,103131.56
2024-02-18T00:41:43.994Z,103130.72
2024-02-18T00:44:10.763Z,103131.56
2024-02-18T00:46:45.050Z,103121.75
2024-02-18T00:49:18.397Z,103114.53
2024-02-18T00:51:45.646Z,103111.69
2024-02-18T00:54:12.475Z,103108.84
2024-02-18T00:56:38.903Z,103115.84
2024-02-18T00:59:05.402Z,103108.72
2024-02-18T01:01:31.889Z,103108.72
2024-02-18T01:03:58.425Z,103116.81
2024-02-18T01:06:24.937Z,103119.50
2024-02-18T01:08:51.575Z,103113.13
2024-02-18T01:11:18.079Z,103108.59
2024-02-18T01:13:44.519Z,103106.59
2024-02-18T01:16:10.972Z,103106.59
2024-02-18T01:18:45.005Z,103113.84
2024-02-18T01:21:12.305Z,103105.63
2024-02-18T01:23:39.038Z,103105.63
2024-02-18T01:26:06.081Z,103102.91
2024-02-18T01:28:32.539Z,103102.06
2024-02-18T01:30:59.120Z,103098.25
2024-02-18T01:33:25.732Z,103098.25
2024-02-18T01:35:52.378Z,103089.16
2024-02-18T01:38:18.847Z,103093.56
2024-02-18T01:40:45.489Z,103091.72
2024-02-18T01:43:14.113Z,103081.78
2024-02-18T01:45:40.850Z,103083.63
2024-02-18T01:48:07.819Z,103082.63
2024-02-18T01:50:34.641Z,103075.28
2024-02-18T01:53:01.481Z,103079.53
2024-02-18T01:55:28.058Z,103078.53
2024-02-18T01:57:54.574Z,103075.72
2024-02-18T02:00:22.554Z,103080.94
2024-02-18T02:02:50.735Z,103073.72
2024-02-18T02:05:20.177Z,103071.00
2024-02-18T02:07:49.897Z,103073.59
2024-02-18T02:10:17.405Z,103071.75
2024-02-18T02:12:44.054Z,103068.06
2024-02-18T02:15:11.296Z,103074.16
2024-02-18T02:17:38.521Z,103056.97
2024-02-18T02:20:11.717Z,103066.91
2024-02-18T02:22:39.345Z,103059.66
2024-02-18T02:25:09.779Z,103051.56
2024-02-18T02:27:42.524Z,103054.28
2024-02-18T02:30:09.204Z,103041.66
2024-02-18T02:32:36.676Z,103040.78
2024-02-18T02:35:04.189Z,103032.69
2024-02-18T02:37:31.277Z,103026.44
2024-02-18T02:39:57.919Z,103030.97
2024-02-18T02:42:24.495Z,103026.44
2024-02-18T02:44:51.019Z,103020.06
2024-02-18T02:47:17.613Z,103023.50
2024-02-18T02:49:44.309Z,103025.31
2024-02-18T02:52:10.925Z,103018.09
2024-02-18T02:54:37.426Z,103014.53
2024-02-18T02:57:04.163Z,103015.53
2024-02-18T02:59:30.588Z,103006.56
2024-02-18T03:01:57.053Z,103004.72
2024-02-18T03:04:23.625Z,103002.16
2024-02-18T03:06:50.464Z,102995.06
2024-02-18T03:09:18.270Z,102999.34
2024-02-18T03:11:44.727Z,102996.78
2024-02-18T03:14:12.430Z,102984.28
2024-02-18T03:16:38.906Z,102985.28
2024-02-18T03:19:05.583Z,102985.44
2024-02-18T03:21:32.175Z,102979.16
2024-02-18T03:23:58.683Z,102971.22
2024-02-18T03:26:27.010Z,102964.13
2024-02-18T03:28:53.938Z,102972.38
2024-02-18T03:31:21.315Z,102969.81
2024-02-18T03:33:48.751Z,102961.00
2024-02-18T03:36:15.392Z,102959.44
2024-02-18T03:38:41.907Z,102956.03
2024-02-18T03:41:08.712Z,102955.47
2024-02-18T03:43:35.703Z,102951.91
2024-02-18T03:46:03.298Z,102949.50
2024-02-18T03:48:30.235Z,102946.09
2024-02-18T03:50:57.044Z,102941.81
2024-02-18T03:53:23.548Z,102936.72
2024-02-18T03:55:50.623Z,102936.84
2024-02-18T03:58:17.087Z,102930.59
2024-02-18T04:00:48.036Z,102919.97
2024-02-18T04:03:15.091Z,102916.56
2024-02-18T04:05:42.806Z,102906.91
2024-02-18T04:08:09.423Z,102906.19
2024-02-18T04:10:35.854Z,102905.47
2024-02-18T04:13:02.513Z,102901.06
2024-02-18T04:15:29.025Z,102895.97
2024-02-18T04:17:56.048Z,102895.25
2024-02-18T04:20:22.937Z,102882.06
2024-02-18T04:22:49.349Z,102881.34
2024-02-18T04:25:15.950Z,102875.09
2024-02-18T04:27:42.677Z,102865.47
2024-02-18T04:30:09.621Z,102870.84
2024-02-18T04:32:36.132Z,102860.34
2024-02-18T04:35:02.669Z,102857.81
2024-02-18T04:37:29.256Z,102854.53
2024-02-18T04:39:55.817Z,102852.00
2024-02-18T04:42:22.433Z,102849.31
2024-02-18T04:44:48.921Z,102838.78
2024-02-18T04:47:15.426Z,102835.22
2024-02-18T04:49:41.903Z,102827.31
2024-02-18T04:52:08.440Z,102832.69
2024-02-18T04:54:38.599Z,102819.22
2024-02-18T04:57:06.615Z,102814.69
2024-02-18T04:59:35.125Z,102822.78
2024-02-18T05:02:02.198Z,102808.44
2024-02-18T05:04:32.745Z,102812.81
2024-02-18T05:06:59.917Z,102805.75
2024-02-18T05:09:26.678Z,102806.75
2024-02-18T05:11:53.246Z,102794.97
2024-02-18T05:14:19.988Z,102792.28
2024-02-18T05:16:46.693Z,102790.28
2024-02-18T05:19:13.661Z,102791.13
2024-02-18T05:21:40.729Z,102790.16
2024-02-18T05:24:07.424Z,102779.25
2024-02-18T05:26:33.851Z,102776.81
2024-02-18T05:29:00.386Z,102773.00
2024-02-18T05:31:27.434Z,102782.94
2024-02-18T05:33:54.414Z,102774.97
2024-02-18T05:36:21.919Z,102776.53
2024-02-18T05:38:48.368Z,102764.75
2024-02-18T05:41:14.767Z,102772.00
2024-02-18T05:43:41.189Z,102759.38
2024-02-18T05:46:09.324Z,102752.44
2024-02-18T05:48:36.520Z,102749.00
2024-02-18T05:51:03.250Z,102754.28
2024-02-18T05:53:29.619Z,102740.25
2024-02-18T05:55:56.035Z,102731.31
2024-02-18T05:58:24.242Z,102726.78
2024-02-18T06:00:51.325Z,102729.59
2024-02-18T06:03:19.050Z,102727.03
2024-02-18T06:05:45.846Z,102716.44
2024-02-18T06:08:12.872Z,102713.88
2024-02-18T06:10:39.311Z,102715.00
2024-02-18T06:13:05.929Z,102698.81
2024-02-18T06:15:33.729Z,102697.16
2024-02-18T06:18:00.439Z,102698.28
2024-02-18T06:20:28.477Z,102681.25
2024-02-18T06:22:55.183Z,102680.41
2024-02-18T06:25:21.768Z,102676.31
2024-02-18T06:27:48.833Z,102687.09
2024-02-18T06:30:15.779Z,102671.06
2024-02-18T06:32:42.246Z,102672.03
2024-02-18T06:35:09.540Z,102677.44
2024-02-18T06:37:36.233Z,102675.59
2024-02-18T06:40:03.042Z,102675.59
2024-02-18T06:42:29.826Z,102665.84
2024-02-18T06:44:56.219Z,102664.97
2024-02-18T06:47:22.786Z,102669.66
2024-02-18T06:49:49.514Z,102662.69
2024-02-18T06:52:16.286Z,102663.72
2024-02-18T06:54:43.118Z,102654.06
2024-02-18T06:57:09.573Z,102661.41
2024-02-18T06:59:35.929Z,102658.59
2024-02-18T07:02:02.389Z,102652.50
2024-02-18T07:04:28.862Z,102653.34
2024-02-18T07:06:55.805Z,102650.81
2024-02-18T07:09:22.458Z,102654.34
2024-02-18T07:11:48.935Z,102636.63
2024-02-18T07:14:15.341Z,102645.69
2024-02-18T07:16:41.918Z,102636.94
2024-02-18T07:19:09.110Z,102636.06
2024-02-18T07:21:35.735Z,102633.50
2024-02-18T07:24:02.172Z,102632.78
2024-02-18T07:26:28.610Z,102628.44
2024-02-18T07:28:58.528Z,102626.59
2024-02-18T07:31:27.452Z,102616.94
2024-02-18T07:33:54.152Z,102613.53
2024-02-18T07:36:20.602Z,102612.72
2024-02-18T07:38:47.063Z,102623.59
2024-02-18T07:41:13.455Z,102622.03
2024-02-18T07:43:39.864Z,102613.09
2024-02-18T07:46:06.347Z,102607.88
2024-02-18T07:48:32.914Z,102604.19
2024-02-18T07:50:59.431Z,102604.19
2024-02-18T07:53:25.862Z,102606.06
2024-02-18T07:55:52.284Z,102606.06
2024-02-18T07:58:18.702Z,102600.50
2024-02-18T08:00:45.343Z,102599.66
2024-02-18T08:03:11.823Z,102598.97
2024-02-18T08:05:38.398Z,102592.84
2024-02-18T08:08:05.016Z,102594.00
2024-02-18T08:10:31.399Z,102589.47
2024-02-18T08:12:57.872Z,102603.75
2024-02-18T08:15:24.591Z,102584.34
2024-02-18T08:17:51.421Z,102573.91
2024-02-18T08:20:17.970Z,102576.59
2024-02-18T08:22:45.458Z,102581.13
2024-02-18T08:25:12.294Z,102574.88
2024-02-18T08:27:38.780Z,102568.78
2024-02-18T08:30:06.387Z,102578.69
2024-02-18T08:32:33.196Z,102575.31
2024-02-18T08:34:59.844Z,102572.44
2024-02-18T08:37:26.346Z,102575.16
2024-02-18T08:39:52.870Z,102569.94
2024-02-18T08:42:19.279Z,102553.78
2024-02-18T08:44:45.664Z,102560.28
2024-02-18T08:47:12.768Z,102562.97
2024-02-18T08:49:43.172Z,102557.72
2024-02-18T08:52:10.127Z,102562.28
2024-02-18T08:54:36.846Z,102530.81
2024-02-18T08:57:03.457Z,102537.34
2024-02-18T08:59:30.172Z,102532.09
2024-02-18T09:01:58.790Z,102548.38
2024-02-18T09:04:26.396Z,102527.00
2024-02-18T09:06:53.358Z,102535.78
2024-02-18T09:09:20.181Z,102536.50
2024-02-18T09:11:46.613Z,102523.91
2024-02-18T09:14:13.152Z,102527.72
2024-02-18T09:16:39.599Z,102529.28
2024-02-18T09:19:07.280Z,102525.88
2024-02-18T09:21:33.824Z,102519.38
2024-02-18T09:24:00.455Z,102509.59
2024-02-18T09:26:27.125Z,102506.91
2024-02-18T09:28:53.640Z,102503.34
2024-02-18T09:31:20.460Z,102500.13
2024-02-18T09:33:47.243Z,102483.66
2024-02-18T09:36:13.874Z,102489.91
2024-02-18T09:38:40.723Z,102485.50
2024-02-18T09:41:17.738Z,102478.28
2024-02-18T09:43:46.300Z,102480.97
2024-02-18T09:46:15.442Z,102473.22
2024-02-18T09:48:42.805Z,102465.13
2024-02-18T09:51:10.526Z,102458.06
2024-02-18T09:53:37.130Z,102446.31
2024-02-18T09:56:03.841Z,102451.50
2024-02-18T09:58:30.820Z,102451.81
2024-02-18T10:01:00.042Z,102425.91
2024-02-18T10:03:26.785Z,102423.22
2024-02-18T10:05:53.509Z,102425.06
2024-02-18T10:08:20.016Z,102428.75
2024-02-18T10:10:47.636Z,102424.38
2024-02-18T10:13:14.912Z,102418.69
2024-02-18T10:15:42.837Z,102401.69
2024-02-18T10:18:14.776Z,102406.09
2024-02-18T10:20:42.545Z,102412.19
2024-02-18T10:23:11.521Z,102403.81
2024-02-18T10:25:37.908Z,102410.88
2024-02-18T10:28:05.943Z,102397.28
2024-02-18T10:30:32.550Z,102385.81
2024-02-18T10:32:59.163Z,102390.34
2024-02-18T10:35:25.777Z,102392.06
2024-02-18T10:37:57.448Z,102392.19
2024-02-18T10:40:36.456Z,102398.56
2024-02-18T10:43:06.099Z,102397.03
2024-02-18T10:45:35.967Z,102387.13
2024-02-18T10:48:05.955Z,102376.34
2024-02-18T10:50:40.598Z,102378.19
2024-02-18T10:53:18.718Z,102371.81
2024-02-18T10:56:11.933Z,102369.28
2024-02-18T10:59:08.731Z,102352.41
2024-02-18T11:01:43.477Z,102356.94
2024-02-18T11:04:11.260Z,102346.34
2024-02-18T11:06:38.950Z,102339.13
2024-02-18T11:09:09.531Z,102336.44
2024-02-18T11:11:37.259Z,102341.81
2024-02-18T11:14:05.998Z,102321.44
2024-02-18T11:16:36.182Z,102317.03
2024-02-18T11:19:04.302Z,102306.59
2024-02-18T11:21:31.816Z,102304.03
2024-02-18T11:23:59.873Z,102289.69
2024-02-18T11:26:26.940Z,102285.19
2024-02-18T11:28:53.885Z,102279.69
2024-02-18T11:31:27.760Z,102268.34
2024-02-18T11:33:55.044Z,102262.13
2024-02-18T11:36:24.353Z,102256.88
2024-02-18T11:38:57.687Z,102248.69
2024-02-18T11:41:29.055Z,102231.69
2024-02-18T11:43:56.257Z,102231.81
2024-02-18T11:46:30.208Z,102220.34
2024-02-18T11:48:57.593Z,102215.81
2024-02-18T11:51:27.655Z,102200.53
2024-02-18T11:53:56.781Z,102207.75
2024-02-18T11:56:23.309Z,102207.22
2024-02-18T11:58:51.706Z,102192.34
2024-02-18T12:01:20.697Z,102191.63
2024-02-18T12:03:50.313Z,102180.00
2024-02-18T12:06:17.004Z,102174.50
2024-02-18T12:08:43.807Z,102160.91
2024-02-18T12:11:10.289Z,102164.44
2024-02-18T12:13:36.921Z,102158.06
2024-02-18T12:16:05.823Z,102154.69
2024-02-18T12:18:32.761Z,102157.38
2024-02-18T12:20:59.376Z,102156.38
2024-02-18T12:23:26.629Z,102156.53
2024-02-18T12:25:54.885Z,102136.00
2024-02-18T12:28:21.467Z,102134.16
2024-02-18T12:30:48.383Z,102128.78
2024-02-18T12:33:16.335Z,102127.94
2024-02-18T12:35:43.100Z,102126.94
2024-02-18T12:38:10.356Z,102115.19
2024-02-18T12:40:37.181Z,102111.50
2024-02-18T12:43:38.393Z,102109.81
2024-02-18T12:45:58.987Z,102105.41
2024-02-18T12:48:30.150Z,102097.22
2024-02-18T12:51:12.697Z,102082.91
2024-02-18T12:53:41.252Z,102082.59
2024-02-18T12:56:09.459Z,102075.41
2024-02-18T12:58:38.734Z,102081.75
2024-02-18T13:01:05.985Z,102075.69
2024-02-18T13:03:33.901Z,102070.31
2024-02-18T13:06:01.508Z,102063.09
2024-02-18T13:08:27.994Z,102052.16
2024-02-18T13:10:54.607Z,102041.56
2024-02-18T13:13:21.111Z,102040.28
2024-02-18T13:15:51.000Z,102023.16
2024-02-18T13:18:17.550Z,102030.38
2024-02-18T13:20:44.018Z,102028.22
2024-02-18T13:23:10.384Z,102006.72
2024-02-18T13:25:36.762Z,102009.09
2024-02-18T13:28:04.446Z,102001.84
2024-02-18T13:30:30.938Z,101983.03
2024-02-18T13:32:57.397Z,101986.03
2024-02-18T13:35:23.925Z,101979.66
2024-02-18T13:37:50.357Z,101971.25
2024-02-18T13:40:17.293Z,101971.25
2024-02-18T13:42:43.829Z,101960.50
2024-02-18T13:45:10.959Z,101948.59
2024-02-18T13:47:37.463Z,101958.19
2024-02-18T13:50:05.483Z,101955.50
2024-02-18T13:52:32.239Z,101936.53
2024-02-18T13:54:58.774Z,101931.13
2024-02-18T13:57:25.376Z,101921.06
2024-02-18T13:59:51.970Z,101915.50
2024-02-18T14:02:18.704Z,101911.16
2024-02-18T14:04:45.136Z,101906.44
2024-02-18T14:07:11.587Z,101906.31
2024-02-18T14:09:38.072Z,101889.31
2024-02-18T14:12:07.373Z,101881.09
2024-02-18T14:14:36.868Z,101878.06
2024-02-18T14:17:05.003Z,101862.78
2024-02-18T14:19:31.440Z,101857.25
2024-02-18T14:21:57.990Z,101857.75
2024-02-18T14:24:24.524Z,101858.97
2024-02-18T14:26:51.209Z,101848.03
2024-02-18T14:29:18.256Z,101852.09
2024-02-18T14:31:44.670Z,101845.72
2024-02-18T14:34:11.428Z,101847.22
2024-02-18T14:36:38.032Z,101836.31
2024-02-18T14:39:04.421Z,101824.03
2024-02-18T14:41:30.940Z,101820.88
2024-02-18T14:43:57.442Z,101832.81
2024-02-18T14:46:23.936Z,101841.41
2024-02-18T14:48:50.472Z,101833.88
2024-02-18T14:51:16.940Z,101820.91
2024-02-18T14:53:47.536Z,101834.72
2024-02-18T14:56:14.059Z,101829.69
2024-02-18T14:58:40.629Z,101828.34
2024-02-18T15:01:07.276Z,101831.44
2024-02-18T15:03:34.081Z,101836.31
2024-02-18T15:06:01.604Z,101829.59
2024-02-18T15:08:28.235Z,101832.97
2024-02-18T15:10:54.966Z,101843.41
2024-02-18T15:13:24.611Z,101829.06
2024-02-18T15:15:51.401Z,101845.94
2024-02-18T15:18:18.653Z,101849.13
2024-02-18T15:20:45.544Z,101829.59
2024-02-18T15:23:12.029Z,101832.13
2024-02-18T15:25:38.523Z,101844.59
2024-02-18T15:28:05.036Z,101851.66
2024-02-18T15:30:31.600Z,101856.06
2024-02-18T15:32:58.181Z,101857.06
2024-02-18T15:35:25.156Z,101874.06
2024-02-18T15:37:51.620Z,101856.22
2024-02-18T15:40:18.269Z,101860.59
2024-02-18T15:42:44.839Z,101869.53
2024-02-18T15:45:13.637Z,101869.19
2024-02-18T15:47:40.068Z,101869.88
2024-02-18T15:50:07.294Z,101873.22
2024-02-18T15:52:33.831Z,101880.47
2024-02-18T15:55:00.379Z,101883.84
2024-02-18T15:57:26.819Z,101883.00
2024-02-18T15:59:53.315Z,101893.63
2024-02-18T16:02:19.751Z,101894.47
2024-02-18T16:04:46.399Z,101901.72
2024-02-18T16:07:15.775Z,101901.53
2024-02-18T16:09:51.272Z,101903.41
2024-02-18T16:12:19.126Z,101917.69
2024-02-18T16:14:45.647Z,101913.34
2024-02-18T16:17:12.158Z,101933.19
2024-02-18T16:19:38.660Z,101954.25
2024-02-18T16:22:05.207Z,101935.69
2024-02-18T16:24:31.755Z,101942.28
2024-02-18T16:26:58.214Z,101955.91
2024-02-18T16:29:24.956Z,101950.53
2024-02-18T16:31:51.551Z,101974.06
2024-02-18T16:34:18.399Z,101985.84
2024-02-18T16:36:45.624Z,101979.09
2024-02-18T16:39:14.942Z,101986.34
2024-02-18T16:41:42.309Z,101989.88
2024-02-18T16:44:08.891Z,101997.31
2024-02-18T16:46:39.608Z,102007.38
2024-02-18T16:49:06.765Z,102003.84
2024-02-18T16:51:35.558Z,102011.22
2024-02-18T16:54:02.491Z,102007.88
2024-02-18T16:56:29.777Z,102015.25
2024-02-18T16:58:56.326Z,102021.13
2024-02-18T17:01:22.973Z,102020.44
2024-02-18T17:03:49.604Z,102021.63
2024-02-18T17:06:16.619Z,102029.19
2024-02-18T17:08:42.985Z,102036.56
2024-02-18T17:11:09.406Z,102042.09
2024-02-18T17:13:36.040Z,102056.56
2024-02-18T17:16:02.540Z,102052.50
2024-02-18T17:18:29.725Z,102062.41
2024-02-18T17:20:56.377Z,102077.06
2024-02-18T17:23:22.916Z,102060.06
2024-02-18T17:25:49.450Z,102075.50
2024-02-18T17:28:16.069Z,102090.16
2024-02-18T17:30:42.618Z,102076.69
2024-02-18T17:33:09.229Z,102088.59
2024-02-18T17:35:35.708Z,102085.06
2024-02-18T17:38:02.151Z,102094.13
2024-02-18T17:40:28.592Z,102095.97
2024-02-18T17:42:55.020Z,102117.53
2024-02-18T17:45:21.652Z,102111.47
2024-02-18T17:47:48.272Z,102124.22
2024-02-18T17:50:14.956Z,102128.09
2024-02-18T17:52:41.450Z,102128.94
2024-02-18T17:55:08.052Z,102128.22
2024-02-18T17:57:34.707Z,102142.00
2024-02-18T18:00:02.217Z,102148.38
2024-02-18T18:02:28.829Z,102153.06
2024-02-18T18:04:55.579Z,102142.16
2024-02-18T18:07:22.214Z,102162.84
2024-02-18T18:09:48.702Z,102156.63
2024-02-18T18:12:15.695Z,102163.69
2024-02-18T18:14:42.319Z,102164.53
2024-02-18T18:17:09.496Z,102177.81
2024-02-18T18:19:35.802Z,102168.75
2024-02-18T18:22:02.351Z,102201.06
2024-02-18T18:24:28.765Z,102193.69
2024-02-18T18:26:55.152Z,102202.75
2024-02-18T18:29:24.636Z,102214.38
2024-02-18T18:31:51.277Z,102213.38
2024-02-18T18:34:17.804Z,102203.47
2024-02-18T18:36:44.534Z,102231.06
2024-02-18T18:39:11.615Z,102220.28
2024-02-18T18:41:38.144Z,102229.22
2024-02-18T18:44:04.724Z,102233.75
2024-02-18T18:46:37.729Z,102237.47
2024-02-18T18:49:05.901Z,102239.31
2024-02-18T18:51:33.374Z,102241.81
2024-02-18T18:54:00.653Z,102246.38
2024-02-18T18:56:27.108Z,102244.97
2024-02-18T18:58:53.568Z,102253.75
2024-02-18T19:01:20.677Z,102244.84
2024-02-18T19:03:47.146Z,102251.22
2024-02-18T19:06:17.130Z,102248.66
2024-02-18T19:08:43.753Z,102253.19
2024-02-18T19:11:11.800Z,102256.91
2024-02-18T19:13:42.743Z,102248.97
2024-02-18T19:16:17.290Z,102258.91
2024-02-18T19:18:47.680Z,102260.88
2024-02-18T19:21:14.375Z,102270.66
2024-02-18T19:23:40.789Z,102276.22
2024-02-18T19:26:12.740Z,102270.84
2024-02-18T19:28:43.544Z,102273.66
2024-02-18T19:31:13.568Z,102292.38
2024-02-18T19:33:42.350Z,102292.50
2024-02-18T19:36:09.222Z,102293.50
2024-02-18T19:38:38.733Z,102301.72
2024-02-18T19:41:05.508Z,102301.72
2024-02-18T19:43:32.064Z,102301.88
2024-02-18T19:45:58.743Z,102305.41
2024-02-18T19:48:25.341Z,102310.97
2024-02-18T19:50:52.329Z,102316.47
2024-02-18T19:53:19.918Z,102318.31
2024-02-18T19:55:46.893Z,102314.78
2024-02-18T19:58:13.438Z,102323.69
2024-02-18T20:00:40.123Z,102316.63
2024-02-18T20:03:06.812Z,102306.88
2024-02-18T20:05:35.444Z,102311.94
2024-02-18T20:08:05.138Z,102317.34
2024-02-18T20:10:31.587Z,102328.09
2024-02-18T20:12:58.971Z,102314.09
2024-02-18T20:15:25.447Z,102306.31
2024-02-18T20:17:52.329Z,102305.44
2024-02-18T20:20:20.867Z,102312.69
2024-02-18T20:22:47.396Z,102325.28
2024-02-18T20:25:14.014Z,102319.22
2024-02-18T20:27:40.550Z,102323.75
2024-02-18T20:30:09.949Z,102341.59
2024-02-18T20:32:36.460Z,102350.66
2024-02-18T20:35:03.258Z,102353.22
2024-02-18T20:37:30.936Z,102340.88
2024-02-18T20:39:59.469Z,102349.09
2024-02-18T20:42:26.183Z,102360.88
2024-02-18T20:44:52.738Z,102361.72
2024-02-18T20:47:20.027Z,102366.25
2024-02-18T20:49:46.729Z,102367.13
2024-02-18T20:52:13.513Z,102378.88
2024-02-18T20:54:40.113Z,102389.78
2024-02-18T20:57:08.961Z,102390.63
2024-02-18T20:59:35.449Z,102400.41
2024-02-18T21:02:02.001Z,102393.19
2024-02-18T21:04:28.659Z,102404.94
2024-02-18T21:06:55.996Z,102401.38
2024-02-18T21:09:23.864Z,102403.94
2024-02-18T21:11:50.283Z,102413.00
2024-02-18T21:14:20.213Z,102411.00
2024-02-18T21:16:46.977Z,102417.94
2024-02-18T21:19:14.025Z,102414.53
2024-02-18T21:21:41.341Z,102428.69
2024-02-18T21:24:07.887Z,102436.47
2024-02-18T21:26:34.472Z,102440.00
2024-02-18T21:29:00.889Z,102443.69
2024-02-18T21:31:32.443Z,102455.31
2024-02-18T21:33:59.015Z,102454.19
2024-02-18T21:36:25.914Z,102455.19
2024-02-18T21:38:52.832Z,102459.56
2024-02-18T21:41:19.468Z,102472.03
2024-02-18T21:43:45.951Z,102472.31
2024-02-18T21:46:12.945Z,102474.00
2024-02-18T21:48:39.867Z,102476.84
2024-02-18T21:51:06.584Z,102483.06
2024-02-18T21:53:33.188Z,102493.84
2024-02-18T21:55:59.983Z,102486.91
2024-02-18T21:58:29.143Z,102497.53
2024-02-18T22:00:55.647Z,102502.75
2024-02-18T22:03:22.129Z,102495.69
2024-02-18T22:05:48.684Z,102513.66
2024-02-18T22:08:15.266Z,102517.38
2024-02-18T22:10:41.778Z,102514.53
2024-02-18T22:13:08.359Z,102512.13
2024-02-18T22:15:34.842Z,102525.44
2024-02-18T22:18:01.548Z,102524.72
2024-02-18T22:20:28.170Z,102536.34
2024-02-18T22:22:55.723Z,102541.44
2024-02-18T22:25:22.135Z,102540.03
2024-02-18T22:27:48.844Z,102553.63
2024-02-18T22:30:16.992Z,102552.50
2024-02-18T22:32:43.609Z,102563.25
2024-02-18T22:35:10.261Z,102557.16
2024-02-18T22:37:36.786Z,102574.16
2024-02-18T22:40:04.155Z,102573.31
2024-02-18T22:42:30.647Z,102582.53
2024-02-18T22:44:57.068Z,102585.34
2024-02-18T22:47:23.489Z,102591.47
2024-02-18T22:49:49.901Z,102591.59
2024-02-18T22:52:17.373Z,102598.81
2024-02-18T22:54:48.139Z,102600.66
2024-02-18T22:57:15.512Z,102602.66
2024-02-18T22:59:42.027Z,102615.09
2024-02-18T23:02:08.880Z,102627.97
2024-02-18T23:04:35.399Z,102627.00
2024-02-18T23:07:04.674Z,102632.38
2024-02-18T23:09:31.104Z,102638.59
2024-02-18T23:11:57.540Z,102630.66
2024-02-18T23:14:23.946Z,102632.50
2024-02-18T23:16:50.398Z,102637.03
2024-02-18T23:19:16.925Z,102641.44
2024-02-18T23:21:43.451Z,102647.81
2024-02-18T23:24:09.985Z,102638.75
2024-02-18T23:26:36.380Z,102639.72
2024-02-18T23:29:02.832Z,102649.38
2024-02-18T23:31:29.810Z,102660.13
2024-02-18T23:33:56.502Z,102657.28
2024-02-18T23:36:22.946Z,102664.66
2024-02-18T23:38:49.400Z,102662.22
2024-02-18T23:41:15.823Z,102672.16
2024-02-18T23:43:42.557Z,102678.25
2024-02-18T23:46:10.357Z,102675.69
2024-02-18T23:48:37.008Z,102690.84
2024-02-18T23:51:04.381Z,102680.38
2024-02-18T23:53:30.873Z,102692.69
2024-02-18T23:55:57.362Z,102695.38
2024-02-18T23:58:24.135Z,102690.72
